Terminal Aerodrome Forecast
Issued by NWS Cleveland, OH

Home | Current Version | Previous Version | Graphics & Text | Print | Product List | Glossary On
Versions: 1 2 3 4 5 6 7 8 9 10 11 12 13 14 15 16 17
000
FTUS41 KCLE 181500 AAB
TAFCAK
TAF AMD
KCAK 181553Z 1816/1912 27008KT 5SM -SN OVC015
     FM190000 27006KT P6SM OVC025
     FM190400 27006KT P6SM OVC025=

USA.gov is the U.S. government's official web portal to all federal, state and local government web resources and services.